Pagrindinis puslapis
METAR-TAF:

METAR-TAF

Oro uostai :

Frozinonė, Italija

platuma: 41-38N, ilguma: 013-18E, Aukštis: 180 m

Dabartinis oras

Ataskaita buvo paskelbta 1 valandą ir 6 minutes, ne 09:55 UTC
Vėjas 10 kt iš Rytų
Temperatūra 22°C
Drėgmė 60%
Slėgis 1007 hPa
Matomumas 10 km arba daugiau
Išsisklaidę debesys ne aukštis 3000 ft, aukštai iškilę kamuoliniai debesys.
Išsisklaidę debesys ne aukštis 3500 ft

METAR: LIRH 040955Z 09010KT 9999 SCT030TCU SCT035 22/14 Q1007 RMK BKN MON CIME INC NC VIS MIN 9999 WIND THR16 /////KT BLU

Laikas: 13:01 (11:01 UTC)

Prognozė

Ataskaita buvo paskelbta 3 valandos ir 1 minutes, ne 08:00 UTC
Prognozė galioja nuo 04 metu 09 UTC su 04 metu 18 UTC
Vėjas 7 kt iš Rytų/Pietryčių
Matomumas 10 km arba daugiau
Išsisklaidę debesys ne aukštis 3000 ft
Išsisklaidę debesys ne aukštis 6000 ft
Laikinai
nuo 04 metu 11 UTC su 04 metu 16 UTC
Vėjas 15 kt iš Pietų/Pietryčių

TAF: LIRH 040800Z 0409/0418 12007KT 9999 SCT030 SCT060 TEMPO 0411/0416 16015KT

Orai ataskaitas ir orų prognozės (METAR, TAF).

turimą stotys yra geltonos ir raudonos taškus žemėlapyje.

Perkelti pele per norėdami pamatyti stoties vardą.

Tada spustelėkite, norėdami matyti oro stebėjimo ir prognozės.

Norėdami pakeisti žemėlapį: spustelėkite ant žalios mygtukų su juodo kryžiaus žemyn,; žalią mygtuką su brūkšneliu, jei norite nutolinti; arba žalių rodyklių gretimoms žemėlapius.


METAR-TAF: